Date,TemperatureHighF,TemperatureAvgF,TemperatureLowF,DewpointHighF,DewpointAvgF,DewpointLowF,HumidityHigh,HumidityAvg,HumidityLow,PressureMaxIn,PressureMinIn,WindSpeedMaxMPH,WindSpeedAvgMPH,GustSpeedMaxMPH,PrecipitationSumIn
2013-1-1,15,5,-5,9,-3,-10,81,68,52,30.27,30.09,11,2,0,0.00
2013-1-2,24,18,8,14,10,4,83,72,59,30.09,29.94,10,1,0,0.00
2013-1-3,22,17,8,19,12,2,92,81,72,30.18,30.01,17,5,18,0.00
2013-1-4,29,20,8,18,12,3,85,73,58,30.12,30.00,19,4,24,0.00
2013-1-5,34,21,6,26,17,3,94,82,67,30.13,29.82,15,2,17,0.03
2013-1-6,25,20,10,19,14,6,89,79,61,30.20,29.85,16,4,19,0.00
2013-1-7,38,28,11,26,20,6,87,71,56,30.15,29.88,24,4,26,0.05
2013-1-8,38,29,13,32,24,12,100,84,64,29.99,29.77,18,1,20,0.07
2013-1-9,38,32,20,30,24,17,92,73,50,30.34,29.79,24,7,26,0.00
2013-1-10,38,26,15,29,21,14,100,81,51,30.38,29.99,10,0,14,0.01
2013-1-11,44,40,34,44,38,-100,100,100,77,29.65,29.43,10,0,0,0.00
2013-1-12,48,28,15,45,21,5,100,75,64,30.00,29.42,31,9,42,0.01
2013-1-13,15,11,8,7,3,-1,79,70,62,30.24,29.97,21,7,21,0.00
2013-1-14,20,11,4,10,4,-100,86,75,59,30.42,30.24,27,3,27,0.00
2013-1-15,31,18,2,17,9,-1,92,69,45,30.38,29.94,16,1,21,0.00
2013-1-16,34,27,21,33,19,-100,99,76,60,30.10,29.69,19,5,24,0.00
2013-1-17,21,15,9,11,4,-3,80,60,42,30.39,30.10,17,5,20,0.00
2013-1-18,75,30,9,69,23,4,88,76,58,30.37,29.72,20,2,25,0.04
2013-1-19,46,32,7,34,23,-6,94,71,32,30.05,29.57,43,9,50,0.00
2013-1-20,12,7,3,1,-4,-8,77,58,40,30.34,30.05,22,8,28,0.00
2013-1-21,5,-3,-8,-1,-12,-18,81,61,46,30.33,30.17,22,8,26,0.00
2013-1-22,4,-3,-10,-6,-12,-16,73,62,47,30.40,30.30,14,3,17,0.00
2013-1-23,16,8,-2,11,0,-13,81,68,51,30.52,30.07,24,6,25,0.00
2013-1-24,11,3,-6,1,-8,-100,69,61,52,30.70,30.31,10,1,0,0.00
2013-1-25,21,16,9,15,8,1,88,72,59,30.30,29.91,25,5,25,0.00
2013-1-26,24,14,1,12,4,-100,80,64,47,30.39,30.23,12,1,14,0.01
2013-1-27,31,27,23,31,22,12,100,81,61,30.23,29.78,11,1,13,0.00
2013-1-28,34,32,31,34,32,31,100,100,100,29.89,29.66,12,1,13,0.19
2013-1-29,41,35,33,41,35,31,100,99,91,29.67,29.45,17,2,17,0.41
2013-1-30,33,23,12,32,21,5,100,92,69,29.62,29.39,22,8,26,0.00
2013-1-31,13,6,-3,6,-2,-100,81,69,57,30.19,29.63,24,9,28,0.00
2013-2-1,3,-2,-10,-1,-10,-16,81,65,49,30.33,30.12,14,4,16,0.00
2013-2-2,14,6,2,1,-1,-4,82,72,49,30.15,29.99,6,0,0,0.09
2013-2-3,16,11,4,8,4,0,86,73,56,30.03,29.92,18,5,21,0.00
2013-2-4,19,12,1,9,3,-3,87,69,42,30.01,29.89,0,0,0,0.03
2013-2-5,28,18,0,24,13,-4,94,82,69,30.08,29.69,19,3,21,0.00
2013-2-6,26,14,-7,25,10,-11,95,83,71,30.19,30.01,16,0,17,0.00
2013-2-7,30,27,25,30,27,22,100,99,90,30.14,29.95,8,1,0,0.00
2013-2-8,26,18,2,22,11,-1,90,75,49,30.35,30.15,7,0,0,0.01
2013-2-9,28,18,-1,25,16,-5,100,89,82,30.36,30.00,10,0,12,0.00
2013-2-10,38,32,26,38,32,25,100,99,91,29.99,29.24,16,2,20,0.05
2013-2-11,35,29,22,35,26,17,100,89,74,29.96,29.24,30,10,30,0.05
2013-2-12,32,24,19,23,17,-100,100,78,64,30.03,29.79,16,3,18,0.00
2013-2-13,37,29,20,32,25,19,100,85,62,29.79,29.55,12,1,12,0.00
2013-2-14,34,30,17,34,25,7,100,83,59,30.06,29.49,21,6,24,0.08
2013-2-15,17,12,9,8,2,-2,69,62,52,30.23,30.06,15,5,17,0.00
2013-2-16,18,9,-5,2,-1,-9,81,62,38,30.21,30.14,17,3,17,0.00
2013-2-17,25,10,-12,18,1,-16,85,65,46,30.20,29.80,11,1,14,0.01
2013-2-18,41,30,18,34,24,-100,100,80,65,29.80,29.45,25,4,26,0.00
2013-2-19,18,9,5,16,0,-7,91,66,50,30.25,29.57,31,12,32,0.00
2013-2-20,26,12,1,100,2,-8,80,61,39,30.39,30.18,17,4,19,0.00
2013-2-21,23,14,0,21,8,-100,95,78,64,30.46,30.05,19,1,21,0.00
2013-2-22,30,24,21,30,23,20,100,96,85,30.05,29.77,12,1,18,0.07
2013-2-23,28,24,19,22,20,16,95,84,69,29.91,29.78,14,5,16,0.01
2013-2-24,39,24,10,28,18,8,100,81,50,30.09,29.92,5,0,0,0.01
2013-2-25,41,28,17,27,22,15,99,81,53,30.11,30.00,0,0,0,0.00
2013-2-26,38,30,20,27,24,20,100,81,61,30.01,29.71,20,2,28,0.00
2013-2-27,33,31,29,32,29,23,100,90,73,29.84,29.67,12,4,16,0.08
2013-2-28,32,30,24,29,23,14,96,77,61,30.12,29.84,16,3,16,0.01
2013-3-1,30,24,17,17,13,7,85,65,46,30.25,30.13,12,1,15,0.01
2013-3-2,30,18,3,12,3,-100,85,57,24,30.28,30.14,10,1,13,0.00
2013-3-3,36,17,-2,11,-1,-100,86,58,20,30.15,30.02,2,0,0,0.00
2013-3-4,30,23,14,21,13,4,79,65,50,30.05,29.96,14,2,17,0.00
2013-3-5,28,25,23,28,20,-100,100,94,77,30.13,29.91,11,1,0,0.03
2013-3-6,31,24,11,23,4,-100,96,80,59,30.31,30.13,16,4,16,0.11
2013-3-7,36,22,0,22,-31,-100,93,68,46,30.38,30.26,3,0,0,0.01
2013-3-8,42,32,8,26,-35,-100,89,64,47,30.38,30.14,7,0,0,0.00
2013-3-9,38,34,30,37,-6,-100,98,82,78,30.15,29.74,12,3,17,0.04
2013-3-10,38,35,32,37,35,-100,100,100,47,29.80,29.61,10,1,14,0.25
2013-3-11,32,30,26,32,29,25,100,98,92,29.74,29.57,0,0,0,0.06
2013-3-12,28,25,20,26,19,-100,100,83,66,30.06,29.74,17,4,21,0.02
2013-3-13,30,22,14,17,10,7,88,64,38,30.29,30.06,18,6,20,0.02
2013-3-14,38,25,12,32,20,8,95,82,67,30.28,29.99,6,0,0,0.18
2013-3-15,35,30,24,34,30,22,100,98,89,29.99,29.77,11,1,0,0.11
2013-3-16,29,24,19,29,17,8,100,78,56,30.14,29.80,17,3,17,0.08
2013-3-17,28,19,6,14,8,-1,79,62,45,30.27,29.98,16,2,18,0.00
2013-3-18,32,21,15,30,18,8,100,87,74,29.98,29.53,26,4,28,0.10
2013-3-19,24,17,9,8,5,0,78,61,40,30.06,29.68,30,13,30,0.00
2013-3-20,19,11,4,4,-2,-100,72,54,42,30.10,30.04,27,9,27,0.00
2013-3-21,26,13,-2,10,2,-100,84,63,43,30.09,30.00,14,3,16,0.01
2013-3-22,38,21,2,16,8,-1,87,61,30,30.06,29.99,6,0,0,0.07
2013-3-23,42,28,13,21,15,-100,87,61,33,30.11,30.01,5,0,0,0.00
2013-3-24,33,30,28,26,22,19,83,70,60,30.04,29.83,13,1,16,0.00
2013-3-25,36,30,20,24,20,16,84,66,55,30.11,29.87,16,4,19,0.00
2013-3-26,40,32,25,25,19,-100,76,60,40,30.23,30.11,12,2,17,0.00
2013-3-27,43,34,24,25,20,15,73,58,35,30.28,30.22,12,1,13,0.00
2013-3-28,48,33,18,24,18,13,89,57,27,30.32,30.24,8,0,0,0.00
2013-3-29,52,36,18,27,21,12,98,60,27,30.29,30.13,5,0,0,0.00
2013-3-30,48,41,31,43,34,24,100,79,56,30.13,29.76,18,1,20,0.27
2013-3-31,40,35,28,39,29,11,100,80,39,29.93,29.69,28,8,28,0.00
2013-4-1,31,26,21,15,12,7,72,53,39,30.17,29.93,22,8,24,0.00
2013-4-2,36,28,19,16,12,5,75,53,28,30.31,30.16,17,6,20,0.00
2013-4-3,46,33,16,23,14,3,87,49,20,30.42,30.16,8,0,0,0.00
2013-4-4,50,42,35,36,26,17,68,53,45,30.16,29.93,20,5,21,0.00
2013-4-5,75,37,26,34,23,16,100,60,29,30.20,30.02,12,1,17,0.03
2013-4-6,56,42,32,50,33,18,100,74,50,30.02,29.43,24,4,27,0.11
2013-4-7,50,40,35,38,34,32,98,79,57,29.91,29.59,20,4,26,0.00
2013-4-8,46,40,36,44,36,33,100,87,75,29.96,29.66,11,0,13,0.07
2013-4-9,40,37,32,40,37,32,100,100,97,30.07,29.86,17,3,21,1.09
2013-4-10,35,33,30,34,32,26,100,96,70,30.07,29.88,16,2,21,0.71
2013-4-11,35,33,30,34,31,25,100,93,68,29.88,29.59,21,6,28,0.21
2013-4-12,35,32,30,34,31,29,100,95,83,29.74,29.53,12,2,16,0.11
2013-4-13,37,32,29,32,28,24,100,83,64,29.95,29.73,18,6,20,0.01
2013-4-14,38,32,27,38,31,25,100,95,76,29.96,29.55,19,2,20,0.62
2013-4-15,49,41,32,42,33,27,100,75,44,29.93,29.56,30,6,33,0.33
2013-4-16,51,39,30,31,28,24,94,68,36,30.28,29.92,13,3,17,0.00
2013-4-17,40,35,28,38,33,27,100,92,71,30.28,29.82,19,2,21,0.40
2013-4-18,41,38,35,41,38,35,100,100,100,29.81,29.25,18,3,21,0.43
2013-4-19,37,32,28,35,27,18,100,80,56,29.90,29.24,27,11,32,0.01
2013-4-20,46,34,21,23,15,5,95,52,20,30.32,29.90,17,3,19,0.00
2013-4-21,51,39,29,42,31,16,100,77,51,30.40,30.10,16,2,18,0.17
2013-4-22,76,47,45,48,44,-100,100,93,79,30.13,29.88,7,0,12,0.18
2013-4-23,48,38,30,48,33,26,100,83,61,29.99,29.81,21,5,24,0.04
2013-4-24,52,39,27,38,26,19,97,63,35,29.99,29.85,21,5,28,0.02
2013-4-25,50,40,32,38,31,-100,99,74,39,30.17,29.87,17,5,19,0.03
2013-4-26,72,55,31,48,38,28,95,56,33,30.16,29.96,19,3,24,0.00
2013-4-27,73,60,48,52,48,44,95,67,40,30.06,29.89,12,1,16,0.00
2013-4-28,75,59,40,52,44,38,100,64,27,29.89,29.63,12,1,14,0.00
2013-4-29,74,65,56,58,53,44,96,66,51,29.69,29.53,13,1,14,0.00
2013-4-30,84,70,55,60,55,45,99,62,37,29.83,29.45,28,5,28,0.01
2013-5-1,62,56,49,49,46,42,95,71,49,30.08,29.82,17,3,20,0.00
2013-5-3,40,36,32,40,34,-100,100,99,56,30.16,30.00,7,0,12,0.68
2013-5-4,71,54,40,56,47,-100,100,84,51,30.02,29.93,11,0,0,0.05
2013-5-5,74,57,42,52,46,39,100,73,30,30.03,29.93,12,0,13,0.00
2013-5-6,77,61,42,55,44,33,100,63,23,30.03,29.91,5,0,0,0.00
2013-5-7,82,67,44,50,42,33,100,48,19,29.98,29.87,11,0,18,0.00
2013-5-8,81,66,46,54,47,39,98,56,24,29.93,29.84,13,1,13,0.00
2013-5-9,65,57,47,60,54,-100,100,93,60,29.91,29.84,12,2,17,0.58
2013-5-10,64,50,40,49,44,40,100,82,45,29.97,29.85,11,1,13,0.18
2013-5-11,51,47,42,49,34,22,100,64,36,30.03,29.74,31,9,35,0.03
2013-5-12,54,44,34,30,24,15,76,48,23,30.10,30.01,20,7,26,0.01
2013-5-13,67,50,28,40,31,21,100,55,23,30.11,29.72,12,0,13,0.02
2013-5-14,91,74,56,58,49,-100,72,45,23,29.72,29.37,16,1,19,0.00
2013-5-15,78,68,57,50,43,34,67,43,21,29.79,29.46,19,5,20,0.00
2013-5-16,84,69,50,57,48,40,93,52,25,29.87,29.76,13,1,16,0.00
2013-5-17,63,54,48,58,47,-100,100,83,36,30.01,29.88,13,1,14,0.64
2013-5-18,78,65,50,67,58,50,100,82,59,30.00,29.79,14,1,16,0.00
2013-5-19,85,73,62,68,63,-100,100,75,49,29.81,29.51,21,2,30,0.00
2013-5-20,81,70,62,64,61,58,100,77,48,29.66,29.48,19,2,21,0.42
2013-5-21,72,64,56,65,59,-100,100,87,64,29.61,29.45,27,1,45,1.23
2013-5-22,60,56,51,60,56,51,100,100,100,29.79,29.57,19,1,19,2.23
2013-5-23,64,54,46,51,41,28,100,69,28,30.27,29.80,14,3,19,0.16
2013-5-24,66,53,37,45,38,31,100,62,28,30.40,30.21,11,0,0,0.00
2013-5-25,61,54,48,50,44,33,100,70,36,30.30,30.21,13,1,17,0.01
2013-5-26,63,55,47,52,44,36,91,68,40,30.24,30.07,16,1,19,0.00
2013-5-27,56,54,51,56,51,41,100,90,60,30.07,29.82,14,2,17,0.74
2013-5-28,62,56,51,62,56,51,100,100,100,29.82,29.64,8,0,0,0.07
2013-5-29,84,68,57,67,63,57,100,86,52,29.77,29.67,14,0,17,0.89
2013-5-30,81,71,63,73,67,63,100,89,59,29.70,29.53,19,1,21,0.10
2013-5-31,81,70,62,66,62,56,100,78,42,29.61,29.53,17,1,27,0.01
2013-6-1,75,64,53,63,56,-100,97,76,51,29.70,29.51,19,4,27,0.00
2013-6-2,64,53,45,50,43,38,100,71,43,29.98,29.71,22,5,24,0.00
2013-6-3,73,58,41,54,46,41,100,68,34,30.02,29.93,11,1,13,0.00
2013-6-4,56,54,52,56,54,52,100,99,90,30.10,29.98,10,0,0,0.75
2013-6-5,57,53,51,57,53,51,100,100,100,30.07,29.88,11,1,12,0.56
2013-6-6,57,53,51,57,53,51,100,100,96,29.94,29.86,5,0,0,0.00
2013-6-7,72,59,50,57,52,48,100,81,47,29.95,29.85,6,0,0,0.00
2013-6-8,69,59,54,60,57,54,100,92,70,29.91,29.84,10,0,0,0.16
2013-6-9,73,61,54,66,57,51,100,88,63,29.92,29.73,12,1,13,0.38
2013-6-10,77,68,57,68,62,57,100,84,62,29.78,29.72,11,2,0,0.01
2013-6-11,79,68,56,70,64,55,100,88,66,29.82,29.72,10,0,0,0.03
2013-6-12,75,67,60,72,66,59,100,95,77,29.82,29.61,11,0,14,0.23
2013-6-13,78,68,59,61,58,52,100,73,42,30.00,29.72,17,2,17,0.00
2013-6-14,80,66,51,62,56,51,100,73,45,30.07,29.85,7,0,0,0.00
2013-6-15,80,68,61,72,64,-100,100,90,67,29.94,29.72,13,1,17,0.84
2013-6-16,83,71,58,67,55,-100,100,68,29,29.82,29.76,14,3,17,0.01
2013-6-17,82,71,60,65,58,51,94,66,35,29.88,29.76,19,3,24,0.00
2013-6-18,75,64,54,61,51,42,98,66,40,30.01,29.88,9,0,12,0.00
2013-6-19,80,66,48,61,54,48,100,69,43,30.05,29.92,10,0,0,0.00
2013-6-20,87,74,57,65,60,57,100,66,39,29.99,29.87,12,0,19,0.00
2013-6-21,80,71,64,71,66,62,100,87,62,29.95,29.72,25,2,25,1.08
2013-6-22,83,72,67,72,68,67,100,91,63,29.97,29.76,35,1,38,0.42
2013-6-23,82,77,68,71,68,66,100,74,59,29.80,29.72,12,0,12,0.35
2013-6-24,81,72,66,73,69,66,100,89,70,29.85,29.71,11,0,17,0.00
2013-6-25,81,72,65,75,70,65,100,93,78,29.77,29.63,8,0,0,0.26
2013-6-26,87,77,70,76,72,70,100,88,58,29.63,29.55,10,0,0,0.02
2013-6-27,86,77,67,74,66,56,100,72,40,29.67,29.58,24,4,26,0.01
2013-6-28,74,68,63,70,63,55,100,84,62,29.61,29.53,20,4,24,0.14
2013-6-29,70,65,62,65,59,-100,100,84,74,29.83,29.55,10,0,7,0.04
2013-6-30,80,68,54,58,52,41,98,61,27,30.00,29.83,11,1,14,0.00
2013-7-1,82,68,52,65,56,49,100,70,34,30.09,30.00,12,0,14,0.00
2013-7-2,77,66,55,62,57,52,100,75,44,30.07,29.99,10,0,0,0.01
2013-7-3,76,63,49,62,55,45,100,79,37,30.04,29.93,8,0,0,0.00
2013-7-4,84,70,56,65,60,56,100,75,41,29.97,29.87,8,0,12,0.00
2013-7-5,87,74,57,67,62,57,100,70,40,29.93,29.84,10,0,0,0.00
2013-7-6,90,78,67,68,64,-100,88,65,44,29.89,29.80,11,0,12,0.00
2013-7-7,91,80,70,73,69,66,89,71,48,29.83,29.77,7,0,12,0.00
2013-7-8,91,81,75,76,72,69,97,76,54,29.87,29.74,11,1,13,0.00
2013-7-9,86,76,69,79,72,-100,100,89,67,29.88,29.69,18,1,21,0.20
2013-7-10,80,72,60,71,61,54,97,70,43,29.95,29.74,18,4,22,0.00
2013-7-11,86,71,55,65,59,54,100,72,35,30.03,29.95,0,0,0,0.00
2013-7-12,86,73,58,69,60,56,100,70,39,30.05,29.94,12,0,13,0.00
2013-7-13,85,72,60,75,62,58,100,76,45,30.05,29.95,13,0,16,0.00
2013-7-14,90,76,60,69,65,59,100,73,42,30.12,30.05,10,0,0,0.00
2013-7-15,91,78,64,75,70,64,100,79,52,30.18,30.09,5,0,0,0.00
2013-7-16,94,82,69,79,72,-100,100,78,47,30.16,30.09,12,1,16,0.00
2013-7-17,94,84,74,78,72,67,100,72,45,30.17,30.04,15,2,16,0.00
2013-7-18,95,84,73,76,72,68,100,70,47,30.04,29.72,16,2,21,0.00
2013-7-19,91,81,67,73,66,52,93,62,28,29.77,29.63,21,5,21,0.01
2013-7-20,84,73,60,100,62,-100,100,71,46,29.86,29.75,9,0,12,0.00
2013-7-21,70,65,60,68,63,57,100,94,78,29.92,29.81,11,0,13,1.55
2013-7-22,87,73,60,75,67,60,100,85,62,29.81,29.53,18,1,19,0.00
2013-7-23,74,67,57,68,56,51,94,69,45,29.94,29.65,16,3,17,0.00
2013-7-24,76,63,49,61,54,47,100,77,37,30.02,29.93,5,0,0,0.00
2013-7-25,79,66,55,69,62,55,100,88,62,29.96,29.86,16,0,16,0.04
2013-7-26,75,66,55,69,61,50,100,85,50,29.91,29.77,21,4,26,0.27
2013-7-27,58,53,47,54,50,46,100,88,66,29.93,29.81,18,5,18,0.07
2013-7-28,66,57,49,57,53,49,100,87,64,29.97,29.81,19,5,21,0.00
2013-7-29,79,65,52,62,56,52,100,75,47,30.06,29.97,6,0,0,0.00
2013-7-30,79,67,56,65,61,56,100,83,55,30.08,29.97,7,0,0,0.00
2013-7-31,78,68,60,68,65,60,100,90,63,29.98,29.86,20,1,22,0.20
2013-8-1,78,67,58,64,58,53,100,78,45,29.94,29.80,14,2,18,0.12
2013-8-2,78,68,58,66,59,53,100,76,45,29.92,29.74,18,3,18,0.02
2013-8-3,76,65,51,62,53,45,100,71,35,30.09,29.92,18,2,19,0.00
2013-8-4,76,63,15,60,54,1,100,78,46,30.17,30.01,0,0,0,0.00
2013-8-5,71,63,53,67,62,53,100,95,79,30.01,29.76,8,0,0,0.09
2013-8-6,84,73,62,70,66,60,100,81,51,29.77,29.63,24,2,29,0.47
2013-8-7,77,66,57,66,61,56,100,86,51,29.94,29.67,13,2,14,0.04
2013-8-8,78,65,48,61,55,48,100,76,44,29.98,29.90,5,0,0,0.00
2013-8-9,77,68,59,64,58,53,100,73,45,30.01,29.89,16,3,19,0.00
2013-8-10,75,64,55,60,56,51,100,76,47,30.10,30.01,9,0,0,0.00
2013-8-11,69,62,55,67,62,55,100,99,87,30.05,29.95,0,0,0,0.42
2013-8-12,78,66,56,70,60,53,100,83,42,29.96,29.85,12,2,16,0.01
2013-8-13,74,61,49,58,51,47,100,73,41,30.10,29.96,7,0,0,0.00
2013-8-14,74,61,48,58,53,48,100,78,46,30.14,30.02,7,0,0,0.00
2013-8-15,77,65,55,61,56,49,100,77,39,30.06,29.99,10,1,12,0.00
2013-8-16,81,66,51,64,56,50,100,73,37,30.10,30.04,7,0,0,0.00
2013-8-17,84,68,52,64,57,52,100,75,36,30.14,30.03,5,0,0,0.00
2013-8-18,83,68,52,66,58,52,100,75,40,30.10,29.96,7,0,0,0.00
2013-8-19,83,70,56,66,62,56,100,80,55,29.97,29.87,12,1,12,0.00
2013-8-20,88,77,66,70,64,-100,95,73,51,29.90,29.82,12,0,14,0.00
2013-8-21,89,78,69,76,70,66,100,78,59,29.87,29.75,14,1,19,0.01
2013-8-22,86,72,62,69,63,55,100,78,38,30.01,29.86,11,0,0,0.00
2013-8-23,86,70,56,64,59,-100,100,74,39,30.06,29.97,13,0,14,0.00
2013-8-24,86,72,56,71,64,52,100,77,49,30.08,29.93,12,0,15,0.00
2013-8-25,88,78,74,74,70,-100,88,78,38,29.96,29.93,13,0,13,0.00
2013-8-26,94,83,74,78,72,64,91,72,54,30.01,29.81,13,1,16,0.00
2013-8-27,93,84,76,78,74,71,96,73,53,29.81,29.68,14,2,16,0.00
2013-8-28,86,77,73,77,72,69,100,87,59,29.95,29.76,7,0,0,0.00
2013-8-29,92,78,63,75,71,63,100,82,55,29.99,29.81,10,0,0,0.00
2013-8-30,90,79,70,77,72,65,100,79,48,29.81,29.71,12,1,14,0.00
2013-8-31,86,72,60,67,64,57,100,79,41,29.81,29.67,4,0,0,0.00
2013-9-1,82,73,66,73,64,-100,100,78,47,29.79,29.64,18,3,20,0.00
2013-9-2,72,62,50,61,55,50,100,81,50,29.97,29.79,13,2,13,0.00
2013-9-3,74,59,42,59,51,42,100,79,41,30.04,29.93,11,0,12,0.00
2013-9-4,86,68,50,68,60,50,100,78,46,30.04,29.95,11,1,13,0.01
2013-9-5,80,68,60,66,60,55,100,79,42,30.19,30.04,11,0,13,0.00
2013-9-6,89,72,56,67,62,52,100,73,44,30.10,29.83,15,1,15,0.01
2013-9-7,91,76,68,72,67,62,92,75,48,29.89,29.76,10,0,14,0.00
2013-9-8,73,68,62,69,62,56,98,83,64,30.00,29.85,14,1,17,0.00
2013-9-9,92,78,62,76,68,-100,100,77,54,29.85,29.60,12,0,14,0.00
2013-9-10,90,80,70,70,66,61,79,62,48,29.86,29.65,14,3,18,0.00
2013-9-11,83,73,61,67,62,54,100,71,46,29.94,29.85,14,2,15,0.00
2013-9-12,74,62,53,58,51,-100,100,71,43,30.12,29.89,19,4,19,0.00
2013-9-13,68,54,41,53,41,32,100,69,28,30.20,30.08,8,0,0,0.00
2013-9-14,74,58,39,58,46,39,100,69,37,30.09,29.88,10,0,0,0.06
2013-9-15,75,58,54,60,55,49,100,91,65,30.21,29.84,10,0,12,0.87
2013-9-16,65,53,40,49,43,37,100,72,38,30.38,30.21,10,0,0,0.00
2013-9-17,66,53,38,59,50,38,100,90,59,30.29,29.97,12,0,14,0.20
2013-9-18,81,68,58,71,64,58,100,88,62,29.97,29.72,8,0,0,0.20
2013-9-19,83,74,67,75,70,-100,100,90,65,29.72,29.56,12,0,19,0.17
2013-9-20,67,61,54,67,60,52,100,94,67,29.80,29.63,18,4,18,0.04
2013-9-21,61,53,43,52,48,43,100,86,59,29.92,29.79,13,4,16,0.04
2013-9-22,70,51,37,67,45,37,100,81,51,30.03,29.92,5,0,0,0.01
2013-9-23,70,55,42,53,49,42,100,82,52,30.04,29.93,14,1,16,0.01
2013-9-24,72,56,45,57,50,45,100,83,44,29.98,29.88,10,0,0,0.00
2013-9-25,70,55,44,58,50,44,100,87,53,29.97,29.87,7,0,0,0.01
2013-9-26,75,58,44,60,53,44,100,84,50,30.00,29.91,10,0,12,0.01
2013-9-27,81,65,49,60,54,49,100,71,42,30.02,29.89,13,1,19,0.00
2013-9-28,78,61,50,67,56,50,100,88,54,29.90,29.68,22,2,22,0.29
2013-9-29,72,56,42,56,48,42,100,78,39,29.98,29.87,7,0,12,0.31
2013-9-30,73,59,43,52,48,43,100,71,37,29.87,29.67,15,0,17,0.00
2013-10-1,78,66,48,60,54,-100,93,70,40,29.91,29.65,16,3,18,0.00
2013-10-2,77,59,41,58,44,36,100,66,26,30.04,29.83,10,0,0,0.00
2013-10-3,68,60,54,66,58,46,100,94,65,29.86,29.75,25,0,29,0.38
2013-10-4,60,58,57,60,58,57,100,100,100,29.93,29.80,12,1,13,0.08
2013-10-5,68,61,50,68,60,50,100,99,86,29.89,29.62,24,1,27,0.02
2013-10-6,58,49,39,50,42,-100,100,82,49,29.69,29.61,10,0,0,0.02
2013-10-7,64,52,43,51,46,41,100,84,44,30.00,29.67,18,3,21,0.05
2013-10-8,76,56,38,56,45,38,100,73,33,30.05,29.94,10,0,17,0.01
2013-10-9,74,60,46,52,49,45,100,69,38,30.09,29.98,12,0,12,0.00
2013-10-10,74,55,40,57,47,40,100,79,40,30.08,29.92,11,0,13,0.00
2013-10-11,75,60,44,60,53,44,100,81,55,29.93,29.72,22,2,29,0.00
2013-10-12,66,59,44,59,48,38,89,68,45,30.08,29.70,22,4,25,0.00
2013-10-13,60,48,37,42,38,31,100,73,36,30.35,30.08,14,3,17,0.00
2013-10-14,59,46,31,45,39,31,100,80,54,30.36,30.01,13,0,14,0.00
2013-10-15,58,50,47,57,49,43,100,94,74,30.01,29.61,14,2,18,0.01
2013-10-16,50,47,38,48,45,-100,100,96,84,29.85,29.66,13,3,14,0.01
2013-10-17,51,39,32,42,37,32,100,94,65,29.84,29.69,0,0,0,0.01
2013-10-18,47,43,36,46,40,36,100,92,68,29.83,29.68,20,4,20,0.00
2013-10-19,50,38,30,44,35,30,100,89,51,29.81,29.60,22,2,29,0.05
2013-10-20,47,43,40,46,39,-100,100,93,38,29.72,29.60,21,4,22,0.00
2013-10-21,40,35,30,36,27,20,99,73,52,29.89,29.72,22,7,26,0.01
2013-10-22,45,34,26,32,27,22,96,75,51,29.96,29.87,13,3,12,0.00
2013-10-23,38,32,25,33,28,24,99,84,63,30.00,29.92,18,3,21,0.01
2013-10-24,42,35,28,29,25,22,89,68,48,30.27,30.00,18,5,19,0.01
2013-10-25,51,42,28,34,29,25,89,63,41,30.28,29.72,27,5,32,0.00
2013-10-26,51,45,38,38,32,26,76,59,43,30.01,29.67,26,8,34,0.00
2013-10-27,56,40,27,35,30,25,100,70,34,30.03,29.78,12,2,12,0.00
2013-10-28,42,37,31,32,28,24,86,69,52,30.38,30.03,11,0,0,0.00
2013-10-29,48,38,32,38,32,25,100,78,64,30.38,30.07,6,0,0,0.00
2013-10-30,54,48,37,54,48,37,100,100,95,30.07,29.65,13,1,13,0.00
2013-10-31,54,49,41,54,49,41,100,100,100,29.65,29.26,17,4,17,0.10
2013-11-1,46,42,35,43,40,34,100,93,79,29.72,29.27,18,6,18,0.01
2013-11-2,45,39,30,37,34,30,100,85,66,30.11,29.72,14,3,13,0.00
2013-11-3,50,38,24,38,31,24,100,77,44,30.22,30.04,14,2,14,0.01
2013-11-4,50,46,43,47,40,34,100,80,65,30.09,29.90,17,2,17,0.02
2013-11-5,48,41,31,45,40,31,100,97,74,30.21,29.76,8,0,0,0.75
2013-11-6,42,37,29,42,31,20,100,81,44,30.12,29.73,22,6,22,0.96
2013-11-7,36,30,25,30,28,23,100,90,77,30.20,30.12,14,2,0,0.00
2013-11-8,44,34,21,39,29,21,100,82,55,30.22,29.64,12,1,17,0.06
2013-11-9,47,43,38,42,35,26,87,72,56,30.05,29.61,33,9,33,0.08
2013-11-10,45,40,37,31,29,12,73,63,50,30.27,30.03,18,5,18,0.00
2013-11-11,41,29,20,36,20,8,100,70,50,30.60,29.99,16,5,16,0.04
2013-11-12,27,20,13,14,10,7,79,65,47,30.74,30.51,13,5,0,0.00
2013-11-13,44,32,18,27,17,10,76,55,38,30.51,29.91,20,5,20,0.01
2013-11-14,49,40,33,33,26,18,70,57,43,29.91,29.76,16,2,16,0.00
2013-11-15,55,40,28,40,33,26,100,79,49,29.84,29.75,8,0,0,0.00
2013-11-16,59,47,39,58,45,34,100,93,74,29.74,29.27,12,2,12,0.23
2013-11-17,53,45,36,53,43,29,100,93,71,29.63,29.18,27,7,27,0.15
2013-11-18,36,30,21,28,22,18,91,74,63,30.25,29.64,28,9,30,0.15
2013-11-19,40,29,17,28,22,16,100,76,48,30.31,30.09,10,1,0,0.00
2013-11-20,39,36,33,35,30,25,100,79,60,30.09,29.99,14,1,14,0.08
2013-11-21,39,36,30,39,36,29,100,100,94,30.31,30.03,12,1,12,0.01
2013-11-22,32,27,23,29,19,9,100,73,43,30.50,30.31,17,5,17,0.01
2013-11-23,23,14,8,17,3,-1,78,61,46,30.74,30.43,20,6,20,0.00
2013-11-24,24,16,4,7,2,-1,83,57,35,30.71,30.13,21,3,21,0.00
2013-11-25,36,31,24,27,20,3,84,65,39,30.11,29.91,19,7,19,0.00
2013-11-26,35,22,11,25,10,0,86,58,39,30.27,29.94,22,8,22,0.00
2013-11-27,25,18,10,12,8,0,80,64,45,30.31,30.14,12,3,0,0.00
2013-11-28,28,23,14,15,12,9,86,61,49,30.50,30.08,12,2,0,0.00
2013-11-29,32,21,7,19,13,4,94,75,50,30.57,30.22,6,0,0,0.00
2013-11-30,44,36,29,29,25,19,80,66,51,30.22,29.95,11,1,0,0.00
2013-12-1,38,30,22,28,25,20,97,82,59,30.13,29.93,4,0,0,0.00
2013-12-2,39,29,18,34,27,18,100,92,70,29.92,29.65,12,1,12,0.04
2013-12-3,34,34,33,34,34,33,100,100,100,29.70,29.63,10,2,0,0.13
2013-12-4,38,34,30,38,34,25,100,98,82,29.69,29.37,26,3,26,0.19
2013-12-5,30,15,6,24,6,-1,82,70,57,30.30,29.57,26,11,26,0.19
2013-12-6,10,5,2,0,-2,-5,80,71,54,30.60,30.29,17,5,17,0.00
2013-12-7,9,2,-4,-2,-6,-100,82,69,42,30.72,30.60,12,3,0,0.00
2013-12-8,12,8,3,9,4,-4,87,81,63,30.63,30.00,8,0,0,0.00
2013-12-9,10,4,-4,7,-2,-10,87,73,54,30.15,29.95,22,4,22,0.00
2013-12-10,13,7,-4,8,-1,-9,83,70,53,30.21,29.84,28,5,28,0.00
2013-12-11,12,1,-5,9,-8,-14,86,65,46,30.53,30.21,16,4,12,0.00
2013-12-12,18,11,-4,12,2,-10,77,67,61,30.46,30.15,12,3,12,0.00
2013-12-13,20,16,13,13,9,2,84,71,61,30.25,30.11,17,1,17,0.00
2013-12-14,21,16,12,16,11,4,87,81,67,30.22,29.95,14,2,13,0.00
2013-12-15,12,4,-4,5,-6,-12,76,62,42,30.15,29.95,19,6,19,0.00
2013-12-16,15,6,-6,13,0,-12,92,76,60,30.16,29.95,11,1,0,0.00
2013-12-17,31,23,13,25,17,4,95,79,61,30.04,29.81,21,8,21,0.00
2013-12-18,36,22,2,28,14,-2,87,72,53,30.06,29.64,11,2,0,0.00
2013-12-19,31,24,21,27,21,16,100,86,79,29.96,29.70,13,1,13,0.00
2013-12-20,22,20,18,21,19,16,100,96,93,29.92,29.78,10,0,0,0.00
2013-12-21,26,24,21,26,23,21,100,99,87,29.87,29.76,0,0,0,0.00
2013-12-22,25,23,21,24,22,20,100,95,85,30.07,29.75,7,0,0,0.00
2013-12-23,21,6,-5,20,1,-9,97,80,71,30.44,30.07,12,4,14,0.00
2013-12-24,13,1,-16,7,-4,-21,87,77,70,30.51,30.20,11,0,0,0.00
2013-12-25,20,14,9,16,-7,-100,88,84,79,30.20,30.00,3,0,0,0.00
2013-12-26,23,18,12,19,13,-100,94,83,71,30.18,30.09,8,0,0,0.00
2013-12-27,38,23,4,31,18,-100,100,83,67,30.21,29.91,18,2,18,0.09
2013-12-28,42,34,22,35,26,-100,100,81,60,29.96,29.65,11,1,0,0.27
2013-12-29,38,12,-10,33,5,-19,100,72,55,30.29,29.68,24,8,24,0.00
2013-12-30,1,-6,-18,-5,-14,-23,78,66,42,30.35,30.21,7,1,0,0.00
2013-12-31,4,0,-8,-5,-8,-15,78,68,55,30.42,30.19,12,3,0,0.00
2014-1-1,7,1,-9,-4,-9,-15,69,60,48,30.46,30.36,5,0,0,0.00
2014-1-2,9,2,-10,-4,-7,-14,76,63,45,30.46,30.33,13,1,0,0.00